createdAt,value
2022-09-18T00:01:31.049Z,11.80
2022-09-18T00:04:02.347Z,11.70
2022-09-18T00:06:32.440Z,11.80
2022-09-18T00:09:02.777Z,11.80
2022-09-18T00:11:34.948Z,11.80
2022-09-18T00:14:03.118Z,11.70
2022-09-18T00:16:31.162Z,11.80
2022-09-18T00:19:00.603Z,11.70
2022-09-18T00:21:29.748Z,11.70
2022-09-18T00:23:59.021Z,11.70
2022-09-18T00:26:27.171Z,11.70
2022-09-18T00:28:56.059Z,11.70
2022-09-18T00:31:26.529Z,11.70
2022-09-18T00:33:54.997Z,11.70
2022-09-18T00:36:24.687Z,11.70
2022-09-18T00:38:53.624Z,11.70
2022-09-18T00:41:24.602Z,11.70
2022-09-18T00:43:53.120Z,11.70
2022-09-18T00:46:26.985Z,11.70
2022-09-18T00:49:04.172Z,11.70
2022-09-18T00:51:38.115Z,11.70
2022-09-18T00:54:11.771Z,11.70
2022-09-18T00:56:40.395Z,11.70
2022-09-18T00:59:09.883Z,11.70
2022-09-18T01:01:37.965Z,11.70
2022-09-18T01:04:11.057Z,11.80
2022-09-18T01:06:46.976Z,11.70
2022-09-18T01:09:28.233Z,11.70
2022-09-18T01:12:02.106Z,11.70
2022-09-18T01:14:37.543Z,11.70
2022-09-18T01:17:15.453Z,11.60
2022-09-18T01:20:24.263Z,11.70
2022-09-18T01:23:09.239Z,11.60
2022-09-18T01:25:46.240Z,11.60
2022-09-18T01:28:22.453Z,11.60
2022-09-18T01:30:54.154Z,11.60
2022-09-18T01:33:30.321Z,11.60
2022-09-18T01:36:03.832Z,11.70
2022-09-18T01:38:37.023Z,11.70
2022-09-18T01:41:13.167Z,11.60
2022-09-18T01:43:45.315Z,11.60
2022-09-18T01:46:17.643Z,11.60
2022-09-18T01:48:51.811Z,11.60
2022-09-18T01:51:24.496Z,11.60
2022-09-18T01:53:58.681Z,11.70
2022-09-18T01:56:33.519Z,11.70
2022-09-18T01:59:08.436Z,11.60
2022-09-18T02:02:09.576Z,11.60
2022-09-18T02:04:40.145Z,11.60
2022-09-18T02:07:17.374Z,11.60
2022-09-18T02:09:45.902Z,11.60
2022-09-18T02:13:05.321Z,11.50
2022-09-18T02:15:39.200Z,11.60
2022-09-18T02:18:19.291Z,11.50
2022-09-18T02:20:48.385Z,11.50
2022-09-18T02:23:16.931Z,11.50
2022-09-18T02:25:51.054Z,11.50
2022-09-18T02:28:23.545Z,11.40
2022-09-18T02:30:53.144Z,11.40
2022-09-18T02:33:29.394Z,11.50
2022-09-18T02:36:16.656Z,11.40
2022-09-18T02:38:54.443Z,11.40
2022-09-18T02:41:30.809Z,11.40
2022-09-18T02:44:03.438Z,11.40
2022-09-18T02:46:47.047Z,11.40
2022-09-18T02:49:23.036Z,11.40
2022-09-18T02:51:56.236Z,11.40
2022-09-18T02:54:31.376Z,11.40
2022-09-18T02:57:07.315Z,11.40
2022-09-18T02:59:40.368Z,11.40
2022-09-18T03:02:11.682Z,11.40
2022-09-18T03:04:41.080Z,11.40
2022-09-18T03:07:14.603Z,11.50
2022-09-18T03:09:44.217Z,11.40
2022-09-18T03:12:13.212Z,11.40
2022-09-18T03:14:46.763Z,11.40
2022-09-18T03:17:16.095Z,11.40
2022-09-18T03:19:46.067Z,11.40
2022-09-18T03:22:14.655Z,11.40
2022-09-18T03:24:43.634Z,11.40
2022-09-18T03:27:11.751Z,11.30
2022-09-18T03:29:39.796Z,11.30
2022-09-18T03:32:07.887Z,11.30
2022-09-18T03:34:44.110Z,11.40
2022-09-18T03:37:12.352Z,11.30
2022-09-18T03:39:40.867Z,11.30
2022-09-18T03:42:12.527Z,11.30
2022-09-18T03:44:40.531Z,11.30
2022-09-18T03:47:18.366Z,11.30
2022-09-18T03:49:49.433Z,11.20
2022-09-18T03:52:17.709Z,11.30
2022-09-18T03:54:54.884Z,11.20
2022-09-18T03:57:43.154Z,11.30
2022-09-18T04:00:40.283Z,11.30
2022-09-18T04:03:15.095Z,11.30
2022-09-18T04:06:03.329Z,11.30
2022-09-18T04:08:57.006Z,11.30
2022-09-18T04:11:33.639Z,11.30
2022-09-18T04:14:01.837Z,11.30
2022-09-18T04:16:29.883Z,11.30
2022-09-18T04:18:58.144Z,11.30
2022-09-18T04:21:27.555Z,11.40
2022-09-18T04:23:59.675Z,11.40
2022-09-18T04:26:27.694Z,11.30
2022-09-18T04:28:59.335Z,11.40
2022-09-18T04:31:27.456Z,11.40
2022-09-18T04:33:57.132Z,11.40
2022-09-18T04:36:25.336Z,11.40
2022-09-18T04:38:54.865Z,11.40
2022-09-18T04:41:22.953Z,11.40
2022-09-18T04:43:51.403Z,11.50
2022-09-18T04:46:20.703Z,11.50
2022-09-18T04:48:50.614Z,11.50
2022-09-18T04:51:23.948Z,11.50
2022-09-18T04:53:52.176Z,11.50
2022-09-18T04:56:21.881Z,11.50
2022-09-18T04:58:52.463Z,11.50
2022-09-18T05:01:20.706Z,11.50
2022-09-18T05:03:48.811Z,11.50
2022-09-18T05:06:25.626Z,11.50
2022-09-18T05:08:54.076Z,11.50
2022-09-18T05:11:25.052Z,11.50
2022-09-18T05:13:56.648Z,11.50
2022-09-18T05:16:25.174Z,11.40
2022-09-18T05:19:13.639Z,11.50
2022-09-18T05:21:41.718Z,11.50
2022-09-18T05:24:13.231Z,11.50
2022-09-18T05:26:42.933Z,11.50
2022-09-18T05:29:11.132Z,11.50
2022-09-18T05:31:41.877Z,11.60
2022-09-18T05:34:10.137Z,11.60
2022-09-18T05:36:38.120Z,11.50
2022-09-18T05:39:07.025Z,11.50
2022-09-18T05:41:35.756Z,11.50
2022-09-18T05:44:06.452Z,11.50
2022-09-18T05:46:34.556Z,11.50
2022-09-18T05:49:06.292Z,11.50
2022-09-18T05:51:34.305Z,11.50
2022-09-18T05:54:06.707Z,11.60
2022-09-18T05:56:41.053Z,11.60
2022-09-18T05:59:10.551Z,11.60
2022-09-18T06:01:40.824Z,11.70
2022-09-18T06:04:25.547Z,11.70
2022-09-18T06:07:00.717Z,11.70
2022-09-18T06:09:29.358Z,11.70
2022-09-18T06:11:58.236Z,11.80
2022-09-18T06:14:27.659Z,11.80
2022-09-18T06:16:55.836Z,11.80
2022-09-18T06:19:23.955Z,11.80
2022-09-18T06:21:53.375Z,11.80
2022-09-18T06:24:22.555Z,11.80
2022-09-18T06:27:10.811Z,12.00
2022-09-18T06:29:41.527Z,11.80
2022-09-18T06:32:12.412Z,11.80
2022-09-18T06:34:41.812Z,11.80
2022-09-18T06:37:13.384Z,11.80
2022-09-18T06:39:44.395Z,11.90
2022-09-18T06:42:21.953Z,11.90
2022-09-18T06:45:10.435Z,11.90
2022-09-18T06:47:39.934Z,12.00
2022-09-18T06:50:09.974Z,12.10
2022-09-18T06:52:38.593Z,12.10
2022-09-18T06:55:07.710Z,12.20
2022-09-18T06:57:35.852Z,12.20
2022-09-18T07:00:05.756Z,12.30
2022-09-18T07:02:39.510Z,12.20
2022-09-18T07:05:45.415Z,12.30
2022-09-18T07:08:22.284Z,12.30
2022-09-18T07:10:54.745Z,12.40
2022-09-18T07:13:23.959Z,12.30
2022-09-18T07:15:52.057Z,12.40
2022-09-18T07:18:21.539Z,12.40
2022-09-18T07:20:49.616Z,12.50
2022-09-18T07:23:32.894Z,12.60
2022-09-18T07:26:01.589Z,12.70
2022-09-18T07:28:29.662Z,12.70
2022-09-18T07:31:07.966Z,12.70
2022-09-18T07:33:38.644Z,12.70
2022-09-18T07:36:07.530Z,12.80
2022-09-18T07:38:37.537Z,12.80
2022-09-18T07:41:06.805Z,12.90
2022-09-18T07:43:35.519Z,13.10
2022-09-18T07:46:03.702Z,13.20
2022-09-18T07:48:34.639Z,13.30
2022-09-18T07:51:12.500Z,13.40
2022-09-18T07:53:43.937Z,13.30
2022-09-18T07:56:13.609Z,13.20
2022-09-18T07:58:41.984Z,13.20
2022-09-18T08:01:16.969Z,13.10
2022-09-18T08:03:48.925Z,13.10
2022-09-18T08:06:18.409Z,13.20
2022-09-18T08:09:05.819Z,13.20
2022-09-18T08:11:54.090Z,13.30
2022-09-18T08:14:29.805Z,13.20
2022-09-18T08:17:23.926Z,13.10
2022-09-18T08:20:07.031Z,13.10
2022-09-18T08:22:47.488Z,13.10
2022-09-18T08:25:16.864Z,13.10
2022-09-18T08:27:50.292Z,13.10
2022-09-18T08:30:27.924Z,13.10
2022-09-18T08:33:01.279Z,13.00
2022-09-18T08:35:30.358Z,13.10
2022-09-18T08:38:03.919Z,13.00
2022-09-18T08:41:03.183Z,13.00
2022-09-18T08:43:49.375Z,12.80
2022-09-18T08:46:23.572Z,12.90
2022-09-18T08:49:00.969Z,12.80
2022-09-18T08:51:34.543Z,12.80
2022-09-18T08:54:19.795Z,12.80
2022-09-18T08:57:05.978Z,12.80
2022-09-18T08:59:59.912Z,12.90
2022-09-18T09:02:39.713Z,12.80
2022-09-18T09:05:12.638Z,12.90
2022-09-18T09:08:10.974Z,12.90
2022-09-18T09:10:47.196Z,13.00
2022-09-18T09:13:55.186Z,12.80
2022-09-18T09:16:31.508Z,13.00
2022-09-18T09:19:01.817Z,13.00
2022-09-18T09:21:50.009Z,12.80
2022-09-18T09:24:33.524Z,12.60
2022-09-18T09:27:36.612Z,12.60
2022-09-18T09:30:24.117Z,12.60
2022-09-18T09:33:28.611Z,12.40
2022-09-18T09:36:18.412Z,12.50
2022-09-18T09:38:54.852Z,12.50
2022-09-18T09:41:30.568Z,12.60
2022-09-18T09:44:11.492Z,12.60
2022-09-18T09:46:58.249Z,12.60
2022-09-18T09:49:29.535Z,12.60
2022-09-18T09:52:09.601Z,12.60
2022-09-18T09:54:40.991Z,12.60
2022-09-18T09:57:20.850Z,12.70
2022-09-18T10:00:00.630Z,12.80
2022-09-18T10:02:59.302Z,13.00
2022-09-18T10:05:38.697Z,13.20
2022-09-18T10:08:15.307Z,13.30
2022-09-18T10:10:49.493Z,13.50
2022-09-18T10:13:22.509Z,13.50
2022-09-18T10:15:56.044Z,13.70
2022-09-18T10:18:30.871Z,13.70
2022-09-18T10:21:06.559Z,13.70
2022-09-18T10:23:40.213Z,13.70
2022-09-18T10:26:14.910Z,13.80
2022-09-18T10:28:42.925Z,13.60
2022-09-18T10:31:14.653Z,13.60
2022-09-18T10:33:50.138Z,13.70
2022-09-18T10:36:29.593Z,13.60
2022-09-18T10:39:00.425Z,13.40
2022-09-18T10:41:40.488Z,13.50
2022-09-18T10:44:23.193Z,13.70
2022-09-18T10:47:01.399Z,13.90
2022-09-18T10:49:34.032Z,13.80
2022-09-18T10:52:28.508Z,13.80
2022-09-18T10:55:13.704Z,13.90
2022-09-18T10:57:46.696Z,13.80
2022-09-18T11:00:40.371Z,13.90
2022-09-18T11:03:22.423Z,13.80
2022-09-18T11:05:55.427Z,14.00
2022-09-18T11:08:30.874Z,14.20
2022-09-18T11:11:04.201Z,14.10
2022-09-18T11:13:40.200Z,14.20
2022-09-18T11:16:09.260Z,14.60
2022-09-18T11:18:39.318Z,14.50
2022-09-18T11:21:08.836Z,14.70
2022-09-18T11:23:38.422Z,14.80
2022-09-18T11:26:16.453Z,14.40
2022-09-18T11:28:58.516Z,14.60
2022-09-18T11:31:29.029Z,14.80
2022-09-18T11:34:05.671Z,14.40
2022-09-18T11:36:40.924Z,14.40
2022-09-18T11:39:16.616Z,14.40
2022-09-18T11:41:50.570Z,14.00
2022-09-18T11:44:23.464Z,13.80
2022-09-18T11:47:20.944Z,13.70
2022-09-18T11:49:55.768Z,13.80
2022-09-18T11:52:30.411Z,13.50
2022-09-18T11:55:07.840Z,13.00
2022-09-18T11:57:39.866Z,12.60
2022-09-18T12:00:17.189Z,12.30
2022-09-18T12:02:51.942Z,12.10
2022-09-18T12:05:29.039Z,11.90
2022-09-18T12:08:07.041Z,11.80
2022-09-18T12:10:50.243Z,11.80
2022-09-18T12:13:40.249Z,11.80
2022-09-18T12:16:17.226Z,11.90
2022-09-18T12:18:58.542Z,11.90
2022-09-18T12:21:38.787Z,12.10
2022-09-18T12:24:13.108Z,12.30
2022-09-18T12:26:52.197Z,12.50
2022-09-18T12:29:35.496Z,12.60
2022-09-18T12:32:20.592Z,12.70
2022-09-18T12:34:59.696Z,12.70
2022-09-18T12:37:45.502Z,12.70
2022-09-18T12:40:36.779Z,12.70
2022-09-18T12:43:37.240Z,12.70
2022-09-18T12:46:32.095Z,12.80
2022-09-18T12:49:19.511Z,12.70
2022-09-18T12:51:51.159Z,12.70
2022-09-18T12:54:42.770Z,12.80
2022-09-18T12:57:28.192Z,12.90
2022-09-18T13:00:01.046Z,12.80
2022-09-18T13:02:50.559Z,12.80
2022-09-18T13:05:25.271Z,12.80
2022-09-18T13:08:00.873Z,12.80
2022-09-18T13:10:34.655Z,12.80
2022-09-18T13:13:10.091Z,12.80
2022-09-18T13:15:43.115Z,12.80
2022-09-18T13:18:23.563Z,12.70
2022-09-18T13:20:53.447Z,12.90
2022-09-18T13:23:26.559Z,12.90
2022-09-18T13:25:58.679Z,12.90
2022-09-18T13:28:28.397Z,13.00
2022-09-18T13:31:23.535Z,12.90
2022-09-18T13:33:54.964Z,13.00
2022-09-18T13:36:25.687Z,12.90
2022-09-18T13:38:54.551Z,12.80
2022-09-18T13:41:24.601Z,12.90
2022-09-18T13:43:56.228Z,12.70
2022-09-18T13:46:37.356Z,12.70
2022-09-18T13:49:22.671Z,12.70
2022-09-18T13:51:51.006Z,12.70
2022-09-18T13:54:28.020Z,12.60
2022-09-18T13:57:29.539Z,12.70
2022-09-18T14:00:01.576Z,12.70
2022-09-18T14:02:40.880Z,12.70
2022-09-18T14:05:31.419Z,12.60
2022-09-18T14:08:07.524Z,12.60
2022-09-18T14:10:54.684Z,12.60
2022-09-18T14:13:36.798Z,12.60
2022-09-18T14:16:11.400Z,12.60
2022-09-18T14:18:55.816Z,12.70
2022-09-18T14:21:28.442Z,12.60
2022-09-18T14:24:21.055Z,12.60
2022-09-18T14:27:03.621Z,12.60
2022-09-18T14:29:43.271Z,12.60
2022-09-18T14:32:19.269Z,12.60
2022-09-18T14:34:48.598Z,12.70
2022-09-18T14:37:28.522Z,12.60
2022-09-18T14:39:58.733Z,12.50
2022-09-18T14:42:33.269Z,12.50
2022-09-18T14:45:21.964Z,12.50
2022-09-18T14:47:50.831Z,12.40
2022-09-18T14:50:33.824Z,12.40
2022-09-18T14:53:04.016Z,12.30
2022-09-18T14:55:36.571Z,12.40
2022-09-18T14:58:08.121Z,12.30
2022-09-18T15:00:39.316Z,12.30
2022-09-18T15:03:14.963Z,12.30
2022-09-18T15:05:43.491Z,12.20
2022-09-18T15:08:25.818Z,12.10
2022-09-18T15:10:57.823Z,12.00
2022-09-18T15:13:26.370Z,12.00
2022-09-18T15:16:01.596Z,12.00
2022-09-18T15:18:31.362Z,11.90
2022-09-18T15:21:01.809Z,11.90
2022-09-18T15:23:31.903Z,11.80
2022-09-18T15:26:04.023Z,11.70
2022-09-18T15:28:34.776Z,11.70
2022-09-18T15:31:08.423Z,11.70
2022-09-18T15:33:37.964Z,11.60
2022-09-18T15:36:06.785Z,11.60
2022-09-18T15:38:40.793Z,11.60
2022-09-18T15:41:24.184Z,11.60
2022-09-18T15:43:52.211Z,11.60
2022-09-18T15:46:29.944Z,11.60
2022-09-18T15:49:00.899Z,11.60
2022-09-18T15:51:31.239Z,11.60
2022-09-18T15:54:23.627Z,11.60
2022-09-18T15:56:53.380Z,11.50
2022-09-18T15:59:28.536Z,11.60
2022-09-18T16:01:58.650Z,11.60
2022-09-18T16:04:32.309Z,11.50
2022-09-18T16:07:05.381Z,11.50
2022-09-18T16:09:43.848Z,11.50
2022-09-18T16:12:38.043Z,11.60
2022-09-18T16:15:18.727Z,11.50
2022-09-18T16:18:03.917Z,11.50
2022-09-18T16:20:40.448Z,11.50
2022-09-18T16:23:31.593Z,11.50
2022-09-18T16:26:07.485Z,11.50
2022-09-18T16:28:37.563Z,11.50
2022-09-18T16:31:05.830Z,11.50
2022-09-18T16:33:36.315Z,11.50
2022-09-18T16:36:07.238Z,11.40
2022-09-18T16:38:36.383Z,11.40
2022-09-18T16:41:04.671Z,11.40
2022-09-18T16:43:32.657Z,11.40
2022-09-18T16:46:00.632Z,11.40
2022-09-18T16:48:29.338Z,11.50
2022-09-18T16:50:58.822Z,11.40
2022-09-18T16:53:27.128Z,11.50
2022-09-18T16:55:57.425Z,11.40
2022-09-18T16:58:28.001Z,11.40
2022-09-18T17:00:56.621Z,11.50
2022-09-18T17:03:25.999Z,11.40
2022-09-18T17:05:54.063Z,11.40
2022-09-18T17:08:24.174Z,11.30
2022-09-18T17:10:52.166Z,11.30
2022-09-18T17:13:20.520Z,11.30
2022-09-18T17:15:48.881Z,11.40
2022-09-18T17:18:16.957Z,11.30
2022-09-18T17:20:45.806Z,11.30
2022-09-18T17:23:14.001Z,11.30
2022-09-18T17:25:43.549Z,10.60
2022-09-18T17:28:12.390Z,10.30
2022-09-18T17:30:44.172Z,10.10
2022-09-18T17:33:12.212Z,10.00
2022-09-18T17:35:40.185Z,10.00
2022-09-18T17:38:08.163Z,9.90
2022-09-18T17:40:36.391Z,9.90
2022-09-18T17:43:06.001Z,9.90
2022-09-18T17:45:34.181Z,9.90
2022-09-18T17:48:02.532Z,9.90
2022-09-18T17:50:30.715Z,9.80
2022-09-18T17:52:58.688Z,9.80
2022-09-18T17:55:26.940Z,9.80
2022-09-18T17:57:55.057Z,9.90
2022-09-18T18:00:24.857Z,9.90
2022-09-18T18:02:52.891Z,9.80
2022-09-18T18:05:20.932Z,9.90
2022-09-18T18:07:49.246Z,9.80
2022-09-18T18:10:17.377Z,9.80
2022-09-18T18:12:45.412Z,9.80
2022-09-18T18:15:13.664Z,9.80
2022-09-18T18:17:43.092Z,9.70
2022-09-18T18:20:11.751Z,9.70
2022-09-18T18:22:39.793Z,9.70
2022-09-18T18:25:09.451Z,9.70
2022-09-18T18:27:37.451Z,9.60
2022-09-18T18:30:06.813Z,9.60
2022-09-18T18:32:35.466Z,9.70
2022-09-18T18:35:05.448Z,9.70
2022-09-18T18:37:33.893Z,9.70
2022-09-18T18:40:02.095Z,9.70
2022-09-18T18:42:30.199Z,9.60
2022-09-18T18:44:58.725Z,9.60
2022-09-18T18:47:27.207Z,9.60
2022-09-18T18:49:56.881Z,9.70
2022-09-18T18:52:26.618Z,9.70
2022-09-18T18:54:54.628Z,9.70
2022-09-18T18:57:22.720Z,9.70
2022-09-18T18:59:50.820Z,9.80
2022-09-18T19:02:18.792Z,9.70
2022-09-18T19:04:46.808Z,9.70
2022-09-18T19:07:14.779Z,9.70
2022-09-18T19:09:44.243Z,9.70
2022-09-18T19:12:13.157Z,9.70
2022-09-18T19:14:41.464Z,9.70
2022-09-18T19:17:09.983Z,9.60
2022-09-18T19:19:38.039Z,9.70
2022-09-18T19:22:07.055Z,9.70
2022-09-18T19:24:35.066Z,9.60
2022-09-18T19:27:05.850Z,9.60
2022-09-18T19:29:34.193Z,9.60
2022-09-18T19:32:02.931Z,9.60
2022-09-18T19:34:30.976Z,9.60
2022-09-18T19:37:00.000Z,9.60
2022-09-18T19:39:28.363Z,9.60
2022-09-18T19:42:00.047Z,9.60
2022-09-18T19:44:35.336Z,9.50
2022-09-18T19:47:07.393Z,9.50
2022-09-18T19:49:38.891Z,9.60
2022-09-18T19:52:16.089Z,9.60
2022-09-18T19:54:44.131Z,9.60
2022-09-18T19:57:12.418Z,9.70
2022-09-18T19:59:41.847Z,9.70
2022-09-18T20:02:13.050Z,9.70
2022-09-18T20:04:41.235Z,9.70
2022-09-18T20:07:09.866Z,9.70
2022-09-18T20:09:38.339Z,9.70
2022-09-18T20:12:06.738Z,9.60
2022-09-18T20:14:34.780Z,9.60
2022-09-18T20:17:04.276Z,9.60
2022-09-18T20:19:32.287Z,9.60
2022-09-18T20:22:02.906Z,9.50
2022-09-18T20:24:33.254Z,9.50
2022-09-18T20:27:01.820Z,9.40
2022-09-18T20:29:30.432Z,9.40
2022-09-18T20:31:58.575Z,9.40
2022-09-18T20:34:27.917Z,9.40
2022-09-18T20:36:56.020Z,9.40
2022-09-18T20:39:23.979Z,9.40
2022-09-18T20:41:52.114Z,9.40
2022-09-18T20:44:20.136Z,9.40
2022-09-18T20:46:49.080Z,9.30
2022-09-18T20:49:18.122Z,9.30
2022-09-18T20:51:47.434Z,9.30
2022-09-18T20:54:16.468Z,9.30
2022-09-18T20:56:44.697Z,9.30
2022-09-18T20:59:14.338Z,9.30
2022-09-18T21:01:42.421Z,9.30
2022-09-18T21:04:17.481Z,9.30
2022-09-18T21:06:49.224Z,9.20
2022-09-18T21:09:17.379Z,9.30
2022-09-18T21:11:45.797Z,9.30
2022-09-18T21:14:16.045Z,9.30
2022-09-18T21:16:44.930Z,9.30
2022-09-18T21:19:14.366Z,9.30
2022-09-18T21:21:42.578Z,9.20
2022-09-18T21:24:12.137Z,9.20
2022-09-18T21:26:41.961Z,9.20
2022-09-18T21:29:14.469Z,9.20
2022-09-18T21:31:43.650Z,9.20
2022-09-18T21:34:13.459Z,9.20
2022-09-18T21:36:43.424Z,9.20
2022-09-18T21:39:14.241Z,9.20
2022-09-18T21:41:46.213Z,9.20
2022-09-18T21:44:17.176Z,9.20
2022-09-18T21:46:46.225Z,9.20
2022-09-18T21:49:16.213Z,9.20
2022-09-18T21:51:44.941Z,9.20
2022-09-18T21:54:21.138Z,9.20
2022-09-18T21:56:51.894Z,9.20
2022-09-18T21:59:20.842Z,9.20
2022-09-18T22:01:51.145Z,9.10
2022-09-18T22:04:22.460Z,9.10
2022-09-18T22:06:50.844Z,9.10
2022-09-18T22:09:21.679Z,9.10
2022-09-18T22:11:51.360Z,9.10
2022-09-18T22:14:22.611Z,9.10
2022-09-18T22:16:53.100Z,9.10
2022-09-18T22:19:21.563Z,9.10
2022-09-18T22:21:51.246Z,9.10
2022-09-18T22:24:22.553Z,9.10
2022-09-18T22:26:54.700Z,9.00
2022-09-18T22:29:24.658Z,9.00
2022-09-18T22:31:52.988Z,9.00
2022-09-18T22:34:24.749Z,9.10
2022-09-18T22:36:53.048Z,9.00
2022-09-18T22:39:23.259Z,9.00
2022-09-18T22:41:52.431Z,9.00
2022-09-18T22:44:21.292Z,9.00
2022-09-18T22:46:51.968Z,9.00
2022-09-18T22:49:21.678Z,9.00
2022-09-18T22:51:50.467Z,9.00
2022-09-18T22:54:23.570Z,9.00
2022-09-18T22:56:53.614Z,9.00
2022-09-18T22:59:23.656Z,8.90
2022-09-18T23:01:53.843Z,8.90
2022-09-18T23:04:25.530Z,8.90
2022-09-18T23:06:53.679Z,8.90
2022-09-18T23:09:22.008Z,8.90
2022-09-18T23:11:53.220Z,8.90
2022-09-18T23:14:25.856Z,8.90
2022-09-18T23:16:54.219Z,8.80
2022-09-18T23:19:23.951Z,8.90
2022-09-18T23:21:52.207Z,8.90
2022-09-18T23:24:20.668Z,8.80
2022-09-18T23:26:50.492Z,8.90
2022-09-18T23:29:22.575Z,8.90
2022-09-18T23:31:52.912Z,8.90
2022-09-18T23:34:23.665Z,8.90
2022-09-18T23:36:54.106Z,8.90
2022-09-18T23:39:24.303Z,8.90
2022-09-18T23:41:52.969Z,8.90
2022-09-18T23:44:23.701Z,9.00
2022-09-18T23:46:52.240Z,9.10
2022-09-18T23:49:23.472Z,9.20
2022-09-18T23:51:54.005Z,9.10
2022-09-18T23:54:24.536Z,9.20
2022-09-18T23:56:53.398Z,9.20
2022-09-18T23:59:25.160Z,9.20
